ibeauty.tw alexa rank chart, ibeauty.tw alexa rank daily changes

ibeauty.tw alexa rank chart, ibeauty.tw alexa rank daily changes

ibeauty.tw
Actual rank:
983 518

RANK HISTORY

Date Rank Diff
2017/11/23 983 518 +4 983
2017/11/22 978 535 +24 049
2017/11/14 954 486 -3 044
2017/11/13 957 530 -24 399
2017/11/12 981 929 +30 883
2017/11/11 951 046 +121
2017/11/10 950 925 +20 826
2017/11/06 930 099 -2 870
2017/11/05 932 969 +47 391
2017/11/04 885 578 -40 952
2017/11/03 926 530 +93 490
2017/11/02 833 040 -18 788
2017/11/01 851 828 +23 142
2017/10/31 828 686 -2 369
2017/10/30 831 055 -4 217
2017/10/29 835 272 -5 216
2017/10/28 840 488 +15 835
2017/10/27 824 653 +56 707
2017/10/26 767 946 +20 442
2017/10/25 747 504 +6 145
2017/10/24 741 359 +10 920
2017/10/23 730 439 +9 150
2017/10/22 721 289 -1 418
2017/10/21 722 707 -6 660
2017/10/20 729 367 -12 961
2017/10/19 742 328 +20 237
2017/10/18 722 091 +3 534
2017/10/17 718 557 -2 575
2017/10/16 721 132 -36 782
2017/10/14 757 914 -898
2017/10/13 758 812 -7 289
2017/10/12 766 101 +28 118
2017/10/11 737 983 +3 363
2017/10/10 734 620 +63 231
2017/10/09 671 389 -14 716
2017/10/08 686 105 -1 695
2017/10/07 687 800 -119 477
2017/10/06 807 277 +136 487
2017/10/05 670 790 -22 532
2017/10/04 693 322 +17 581
2017/10/03 675 741 -43 342
2017/10/02 719 083 +146 253
2017/10/01 572 830 +5 656
2017/09/30 567 174 +12 711
2017/09/29 554 463 -4 466
2017/09/28 558 929 +4 984
2017/09/27 553 945 -6 601
2017/09/26 560 546 -10 696
2017/09/25 571 242 +10 002
2017/09/24 561 240

WIDGET FOR YOUR SITE

DOMAINS WITH THE NEAREST RANK

Domain Rank
dangleterre.com 983 513
chinatrc.com.cn 983 514
ftumj.ac.id 983 515
kginfotech.om 983 516
2012portal.blogspot.ro 983 517
ibeauty.tw 983 518
meteo.ch 983 519
vehiclesavers.com 983 520
spacea.net 983 521
megatinycorp.com 983 522
rmb.hr 983 523

DOMAINS WITH THE NEAREST RANK BY TLD .tw

Domain Rank
youthhub.tw 976 053
ewda.tw 976 125
necoichi.tw 979 100
leathercraft.tw 980 275
91dev.tw 983 225
ibeauty.tw 983 518
readbook.tw 985 824
arno.tw 986 511
cambuy.tw 987 106
sunnybs.tw 987 262
brief.tw 988 398